sensor_id;sensor_type;location;lat;lon;timestamp;temperature;humidity
70708;SHT30;58277;47.316;18.908;2024-01-30T00:00:14;0.47;88.21
70708;SHT30;58277;47.316;18.908;2024-01-30T00:02:37;0.44;88.47
70708;SHT30;58277;47.316;18.908;2024-01-30T00:05:00;0.25;88.53
70708;SHT30;58277;47.316;18.908;2024-01-30T00:07:23;0.25;88.87
70708;SHT30;58277;47.316;18.908;2024-01-30T00:09:47;0.25;88.74
70708;SHT30;58277;47.316;18.908;2024-01-30T00:12:11;0.30;88.97
70708;SHT30;58277;47.316;18.908;2024-01-30T00:14:34;0.40;89.07
70708;SHT30;58277;47.316;18.908;2024-01-30T00:16:56;0.45;88.89
70708;SHT30;58277;47.316;18.908;2024-01-30T00:19:19;0.32;88.79
70708;SHT30;58277;47.316;18.908;2024-01-30T00:21:42;0.36;88.60
70708;SHT30;58277;47.316;18.908;2024-01-30T00:24:05;0.36;88.59
70708;SHT30;58277;47.316;18.908;2024-01-30T00:26:33;0.40;88.68
70708;SHT30;58277;47.316;18.908;2024-01-30T00:28:55;0.28;88.72
70708;SHT30;58277;47.316;18.908;2024-01-30T00:31:18;0.11;88.94
70708;SHT30;58277;47.316;18.908;2024-01-30T00:33:41;-0.01;89.28
70708;SHT30;58277;47.316;18.908;2024-01-30T00:36:05;-0.03;89.74
70708;SHT30;58277;47.316;18.908;2024-01-30T00:38:33;0.03;89.79
70708;SHT30;58277;47.316;18.908;2024-01-30T00:40:55;0.24;89.78
70708;SHT30;58277;47.316;18.908;2024-01-30T00:43:18;0.38;89.45
70708;SHT30;58277;47.316;18.908;2024-01-30T00:45:41;0.48;89.04
70708;SHT30;58277;47.316;18.908;2024-01-30T00:48:04;0.42;88.98
70708;SHT30;58277;47.316;18.908;2024-01-30T00:50:27;0.41;89.04
70708;SHT30;58277;47.316;18.908;2024-01-30T00:52:50;0.37;89.02
70708;SHT30;58277;47.316;18.908;2024-01-30T00:55:13;0.34;89.12
70708;SHT30;58277;47.316;18.908;2024-01-30T00:57:36;0.25;88.95
70708;SHT30;58277;47.316;18.908;2024-01-30T00:59:59;0.30;89.20
70708;SHT30;58277;47.316;18.908;2024-01-30T01:02:22;0.25;89.04
70708;SHT30;58277;47.316;18.908;2024-01-30T01:04:45;0.17;89.14
70708;SHT30;58277;47.316;18.908;2024-01-30T01:07:07;0.22;89.42
70708;SHT30;58277;47.316;18.908;2024-01-30T01:09:30;0.27;89.25
70708;SHT30;58277;47.316;18.908;2024-01-30T01:11:53;0.30;89.42
70708;SHT30;58277;47.316;18.908;2024-01-30T01:14:16;0.24;89.59
70708;SHT30;58277;47.316;18.908;2024-01-30T01:16:39;0.30;89.74
70708;SHT30;58277;47.316;18.908;2024-01-30T01:19:01;0.18;90.09
70708;SHT30;58277;47.316;18.908;2024-01-30T01:21:24;0.11;90.34
70708;SHT30;58277;47.316;18.908;2024-01-30T01:23:47;0.04;90.80
70708;SHT30;58277;47.316;18.908;2024-01-30T01:26:10;0.13;90.96
70708;SHT30;58277;47.316;18.908;2024-01-30T01:28:33;0.10;90.51
70708;SHT30;58277;47.316;18.908;2024-01-30T01:30:56;0.10;90.57
70708;SHT30;58277;47.316;18.908;2024-01-30T01:33:21;0.18;90.40
70708;SHT30;58277;47.316;18.908;2024-01-30T01:35:44;0.28;89.80
70708;SHT30;58277;47.316;18.908;2024-01-30T01:38:07;0.22;89.75
70708;SHT30;58277;47.316;18.908;2024-01-30T01:40:30;0.04;90.05
70708;SHT30;58277;47.316;18.908;2024-01-30T01:42:54;0.06;90.18
70708;SHT30;58277;47.316;18.908;2024-01-30T01:45:18;0.07;89.88
70708;SHT30;58277;47.316;18.908;2024-01-30T01:47:41;-0.04;89.94
70708;SHT30;58277;47.316;18.908;2024-01-30T01:50:04;-0.06;89.82
70708;SHT30;58277;47.316;18.908;2024-01-30T01:52:28;0.06;89.34
70708;SHT30;58277;47.316;18.908;2024-01-30T01:54:51;-0.01;89.27
70708;SHT30;58277;47.316;18.908;2024-01-30T01:57:14;-0.04;89.47
70708;SHT30;58277;47.316;18.908;2024-01-30T01:59:37;0.07;89.22
70708;SHT30;58277;47.316;18.908;2024-01-30T02:02:02;0.06;89.16
70708;SHT30;58277;47.316;18.908;2024-01-30T02:04:24;0.01;89.17
70708;SHT30;58277;47.316;18.908;2024-01-30T02:06:47;0.04;89.28
70708;SHT30;58277;47.316;18.908;2024-01-30T02:09:11;0.06;89.19
70708;SHT30;58277;47.316;18.908;2024-01-30T02:11:33;-0.07;89.30
70708;SHT30;58277;47.316;18.908;2024-01-30T02:13:56;-0.03;89.60
70708;SHT30;58277;47.316;18.908;2024-01-30T02:16:19;-0.11;89.58
70708;SHT30;58277;47.316;18.908;2024-01-30T02:18:42;-0.14;89.86
70708;SHT30;58277;47.316;18.908;2024-01-30T02:21:19;-0.21;89.93
70708;SHT30;58277;47.316;18.908;2024-01-30T02:23:46;-0.29;90.22
70708;SHT30;58277;47.316;18.908;2024-01-30T02:26:09;-0.25;90.28
70708;SHT30;58277;47.316;18.908;2024-01-30T02:28:32;-0.32;89.87
70708;SHT30;58277;47.316;18.908;2024-01-30T02:30:55;-0.37;89.82
70708;SHT30;58277;47.316;18.908;2024-01-30T02:33:18;-0.39;89.90
70708;SHT30;58277;47.316;18.908;2024-01-30T02:35:41;-0.32;89.70
70708;SHT30;58277;47.316;18.908;2024-01-30T02:38:04;-0.44;89.95
70708;SHT30;58277;47.316;18.908;2024-01-30T02:40:27;-0.49;90.35
70708;SHT30;58277;47.316;18.908;2024-01-30T02:42:50;-0.49;90.40
70708;SHT30;58277;47.316;18.908;2024-01-30T02:45:13;-0.38;90.04
70708;SHT30;58277;47.316;18.908;2024-01-30T02:47:36;-0.37;89.69
70708;SHT30;58277;47.316;18.908;2024-01-30T02:49:58;-0.35;89.45
70708;SHT30;58277;47.316;18.908;2024-01-30T02:52:22;-0.38;89.42
70708;SHT30;58277;47.316;18.908;2024-01-30T02:54:44;-0.34;89.18
70708;SHT30;58277;47.316;18.908;2024-01-30T02:57:07;-0.32;89.00
70708;SHT30;58277;47.316;18.908;2024-01-30T02:59:30;-0.46;89.52
70708;SHT30;58277;47.316;18.908;2024-01-30T03:01:55;-0.45;89.81
70708;SHT30;58277;47.316;18.908;2024-01-30T03:04:18;-0.51;89.84
70708;SHT30;58277;47.316;18.908;2024-01-30T03:06:45;-0.52;90.03
70708;SHT30;58277;47.316;18.908;2024-01-30T03:09:10;-0.48;89.75
70708;SHT30;58277;47.316;18.908;2024-01-30T03:11:33;-0.48;89.60
70708;SHT30;58277;47.316;18.908;2024-01-30T03:13:56;-0.64;89.96
70708;SHT30;58277;47.316;18.908;2024-01-30T03:16:18;-0.68;90.56
70708;SHT30;58277;47.316;18.908;2024-01-30T03:18:41;-0.64;90.67
70708;SHT30;58277;47.316;18.908;2024-01-30T03:21:04;-0.62;90.49
70708;SHT30;58277;47.316;18.908;2024-01-30T03:23:27;-0.70;90.64
70708;SHT30;58277;47.316;18.908;2024-01-30T03:25:49;-0.72;90.67
70708;SHT30;58277;47.316;18.908;2024-01-30T03:28:12;-0.64;90.31
70708;SHT30;58277;47.316;18.908;2024-01-30T03:30:35;-0.70;90.40
70708;SHT30;58277;47.316;18.908;2024-01-30T03:32:58;-0.68;90.27
70708;SHT30;58277;47.316;18.908;2024-01-30T03:35:20;-0.69;90.13
70708;SHT30;58277;47.316;18.908;2024-01-30T03:37:43;-0.59;90.06
70708;SHT30;58277;47.316;18.908;2024-01-30T03:40:06;-0.73;90.24
70708;SHT30;58277;47.316;18.908;2024-01-30T03:42:29;-0.73;90.53
70708;SHT30;58277;47.316;18.908;2024-01-30T03:44:52;-0.80;90.59
70708;SHT30;58277;47.316;18.908;2024-01-30T03:47:16;-0.79;90.58
70708;SHT30;58277;47.316;18.908;2024-01-30T03:49:38;-0.80;90.67
70708;SHT30;58277;47.316;18.908;2024-01-30T03:52:01;-0.85;90.75
70708;SHT30;58277;47.316;18.908;2024-01-30T03:54:24;-0.82;90.80
70708;SHT30;58277;47.316;18.908;2024-01-30T03:56:47;-0.80;90.66
70708;SHT30;58277;47.316;18.908;2024-01-30T03:59:09;-0.82;90.69
70708;SHT30;58277;47.316;18.908;2024-01-30T04:01:32;-0.77;90.47
70708;SHT30;58277;47.316;18.908;2024-01-30T04:03:56;-0.62;89.91
70708;SHT30;58277;47.316;18.908;2024-01-30T04:06:19;-0.61;89.43
70708;SHT30;58277;47.316;18.908;2024-01-30T04:08:42;-0.72;89.78
70708;SHT30;58277;47.316;18.908;2024-01-30T04:11:05;-0.77;90.39
70708;SHT30;58277;47.316;18.908;2024-01-30T04:13:28;-0.70;90.44
70708;SHT30;58277;47.316;18.908;2024-01-30T04:15:51;-0.76;90.29
70708;SHT30;58277;47.316;18.908;2024-01-30T04:18:15;-0.73;90.22
70708;SHT30;58277;47.316;18.908;2024-01-30T04:20:38;-0.73;90.37
70708;SHT30;58277;47.316;18.908;2024-01-30T04:23:01;-0.70;90.36
70708;SHT30;58277;47.316;18.908;2024-01-30T04:25:24;-0.68;90.17
70708;SHT30;58277;47.316;18.908;2024-01-30T04:27:47;-0.82;90.17
70708;SHT30;58277;47.316;18.908;2024-01-30T04:30:10;-0.79;90.29
70708;SHT30;58277;47.316;18.908;2024-01-30T04:32:36;-0.83;90.57
70708;SHT30;58277;47.316;18.908;2024-01-30T04:34:59;-0.75;90.85
70708;SHT30;58277;47.316;18.908;2024-01-30T04:37:23;-0.76;90.46
70708;SHT30;58277;47.316;18.908;2024-01-30T04:39:45;-0.65;90.00
70708;SHT30;58277;47.316;18.908;2024-01-30T04:42:08;-0.59;89.70
70708;SHT30;58277;47.316;18.908;2024-01-30T04:44:32;-0.72;89.93
70708;SHT30;58277;47.316;18.908;2024-01-30T04:46:54;-0.80;90.31
70708;SHT30;58277;47.316;18.908;2024-01-30T04:49:21;-0.83;90.66
70708;SHT30;58277;47.316;18.908;2024-01-30T04:51:44;-0.93;91.07
70708;SHT30;58277;47.316;18.908;2024-01-30T04:54:08;-0.89;91.20
70708;SHT30;58277;47.316;18.908;2024-01-30T04:56:33;-0.94;90.98
70708;SHT30;58277;47.316;18.908;2024-01-30T04:58:56;-0.83;91.13
70708;SHT30;58277;47.316;18.908;2024-01-30T05:01:19;-0.89;91.18
70708;SHT30;58277;47.316;18.908;2024-01-30T05:03:42;-0.79;91.03
70708;SHT30;58277;47.316;18.908;2024-01-30T05:06:05;-0.73;90.53
70708;SHT30;58277;47.316;18.908;2024-01-30T05:08:31;-0.59;90.16
70708;SHT30;58277;47.316;18.908;2024-01-30T05:10:53;-0.62;89.92
70708;SHT30;58277;47.316;18.908;2024-01-30T05:13:16;-0.66;89.94
70708;SHT30;58277;47.316;18.908;2024-01-30T05:15:39;-0.73;90.28
70708;SHT30;58277;47.316;18.908;2024-01-30T05:18:02;-0.70;90.21
70708;SHT30;58277;47.316;18.908;2024-01-30T05:20:26;-0.65;90.12
70708;SHT30;58277;47.316;18.908;2024-01-30T05:22:51;-0.68;89.68
70708;SHT30;58277;47.316;18.908;2024-01-30T05:25:13;-0.69;90.07
70708;SHT30;58277;47.316;18.908;2024-01-30T05:27:36;-0.62;89.86
70708;SHT30;58277;47.316;18.908;2024-01-30T05:29:59;-0.56;89.54
70708;SHT30;58277;47.316;18.908;2024-01-30T05:32:22;-0.72;90.03
70708;SHT30;58277;47.316;18.908;2024-01-30T05:34:45;-0.69;90.12
70708;SHT30;58277;47.316;18.908;2024-01-30T05:37:07;-0.72;89.93
70708;SHT30;58277;47.316;18.908;2024-01-30T05:39:30;-0.72;90.33
70708;SHT30;58277;47.316;18.908;2024-01-30T05:41:55;-0.75;90.35
70708;SHT30;58277;47.316;18.908;2024-01-30T05:44:18;-0.73;90.26
70708;SHT30;58277;47.316;18.908;2024-01-30T05:46:41;-0.75;90.07
70708;SHT30;58277;47.316;18.908;2024-01-30T05:49:04;-0.77;90.32
70708;SHT30;58277;47.316;18.908;2024-01-30T05:51:27;-0.89;90.58
70708;SHT30;58277;47.316;18.908;2024-01-30T05:53:50;-0.86;90.79
70708;SHT30;58277;47.316;18.908;2024-01-30T05:56:13;-0.86;90.81
70708;SHT30;58277;47.316;18.908;2024-01-30T05:58:36;-0.83;90.80
70708;SHT30;58277;47.316;18.908;2024-01-30T06:01:00;-0.68;90.46
70708;SHT30;58277;47.316;18.908;2024-01-30T06:03:23;-0.68;89.96
70708;SHT30;58277;47.316;18.908;2024-01-30T06:05:45;-0.77;90.11
70708;SHT30;58277;47.316;18.908;2024-01-30T06:08:08;-0.82;90.24
70708;SHT30;58277;47.316;18.908;2024-01-30T06:10:31;-0.77;90.62
70708;SHT30;58277;47.316;18.908;2024-01-30T06:12:54;-0.66;89.89
70708;SHT30;58277;47.316;18.908;2024-01-30T06:15:17;-0.58;89.53
70708;SHT30;58277;47.316;18.908;2024-01-30T06:17:43;-0.64;89.38
70708;SHT30;58277;47.316;18.908;2024-01-30T06:20:06;-0.75;89.84
70708;SHT30;58277;47.316;18.908;2024-01-30T06:22:29;-0.73;90.10
70708;SHT30;58277;47.316;18.908;2024-01-30T06:24:52;-0.70;89.80
70708;SHT30;58277;47.316;18.908;2024-01-30T06:27:15;-0.68;89.79
70708;SHT30;58277;47.316;18.908;2024-01-30T06:29:37;-0.66;89.90
70708;SHT30;58277;47.316;18.908;2024-01-30T06:32:00;-0.76;90.09
70708;SHT30;58277;47.316;18.908;2024-01-30T06:34:23;-0.82;90.36
70708;SHT30;58277;47.316;18.908;2024-01-30T06:36:46;-0.76;90.43
70708;SHT30;58277;47.316;18.908;2024-01-30T06:39:09;-0.70;90.33
70708;SHT30;58277;47.316;18.908;2024-01-30T06:41:32;-0.59;90.04
70708;SHT30;58277;47.316;18.908;2024-01-30T06:43:56;-0.73;89.92
70708;SHT30;58277;47.316;18.908;2024-01-30T06:46:19;-0.70;89.85
70708;SHT30;58277;47.316;18.908;2024-01-30T06:48:42;-0.72;89.68
70708;SHT30;58277;47.316;18.908;2024-01-30T06:51:07;-0.58;89.79
70708;SHT30;58277;47.316;18.908;2024-01-30T06:53:30;-0.35;88.93
70708;SHT30;58277;47.316;18.908;2024-01-30T06:55:53;-0.37;88.05
70708;SHT30;58277;47.316;18.908;2024-01-30T06:58:16;-0.32;88.04
70708;SHT30;58277;47.316;18.908;2024-01-30T07:00:41;-0.25;87.55
70708;SHT30;58277;47.316;18.908;2024-01-30T07:03:06;-0.22;87.62
70708;SHT30;58277;47.316;18.908;2024-01-30T07:05:32;-0.13;87.45
70708;SHT30;58277;47.316;18.908;2024-01-30T07:07:55;0.00;87.14
70708;SHT30;58277;47.316;18.908;2024-01-30T07:10:18;0.00;86.90
70708;SHT30;58277;47.316;18.908;2024-01-30T07:12:42;0.09;86.61
70708;SHT30;58277;47.316;18.908;2024-01-30T07:15:05;0.31;86.46
70708;SHT30;58277;47.316;18.908;2024-01-30T07:17:30;0.28;86.02
70708;SHT30;58277;47.316;18.908;2024-01-30T07:19:53;0.31;86.09
70708;SHT30;58277;47.316;18.908;2024-01-30T07:22:16;0.30;86.25
70708;SHT30;58277;47.316;18.908;2024-01-30T07:24:42;0.34;86.26
70708;SHT30;58277;47.316;18.908;2024-01-30T07:27:07;0.27;86.25
70708;SHT30;58277;47.316;18.908;2024-01-30T07:29:30;0.21;86.33
70708;SHT30;58277;47.316;18.908;2024-01-30T07:31:53;0.27;86.42
70708;SHT30;58277;47.316;18.908;2024-01-30T07:34:16;0.30;86.34
70708;SHT30;58277;47.316;18.908;2024-01-30T07:36:39;0.28;86.11
70708;SHT30;58277;47.316;18.908;2024-01-30T07:39:04;0.38;86.15
70708;SHT30;58277;47.316;18.908;2024-01-30T07:41:27;0.36;86.17
70708;SHT30;58277;47.316;18.908;2024-01-30T07:43:50;0.38;86.19
70708;SHT30;58277;47.316;18.908;2024-01-30T07:46:13;0.59;86.03
70708;SHT30;58277;47.316;18.908;2024-01-30T07:48:35;0.65;85.55
70708;SHT30;58277;47.316;18.908;2024-01-30T07:50:58;0.70;85.33
70708;SHT30;58277;47.316;18.908;2024-01-30T07:53:21;0.78;85.28
70708;SHT30;58277;47.316;18.908;2024-01-30T07:55:44;0.72;85.15
70708;SHT30;58277;47.316;18.908;2024-01-30T07:58:09;0.79;85.13
70708;SHT30;58277;47.316;18.908;2024-01-30T08:00:32;0.86;84.96
70708;SHT30;58277;47.316;18.908;2024-01-30T08:02:56;0.95;84.86
70708;SHT30;58277;47.316;18.908;2024-01-30T08:05:19;1.08;84.67
70708;SHT30;58277;47.316;18.908;2024-01-30T08:07:44;1.31;84.36
70708;SHT30;58277;47.316;18.908;2024-01-30T08:10:10;1.33;83.59
70708;SHT30;58277;47.316;18.908;2024-01-30T08:12:36;1.58;83.39
70708;SHT30;58277;47.316;18.908;2024-01-30T08:14:59;1.45;83.12
70708;SHT30;58277;47.316;18.908;2024-01-30T08:17:25;1.44;83.63
70708;SHT30;58277;47.316;18.908;2024-01-30T08:19:48;1.72;83.20
70708;SHT30;58277;47.316;18.908;2024-01-30T08:22:12;1.65;83.18
70708;SHT30;58277;47.316;18.908;2024-01-30T08:24:35;1.59;83.23
70708;SHT30;58277;47.316;18.908;2024-01-30T08:26:57;1.58;83.39
70708;SHT30;58277;47.316;18.908;2024-01-30T08:29:23;1.62;83.33
70708;SHT30;58277;47.316;18.908;2024-01-30T08:31:48;1.50;83.71
70708;SHT30;58277;47.316;18.908;2024-01-30T08:34:11;1.76;83.67
70708;SHT30;58277;47.316;18.908;2024-01-30T08:36:37;1.61;84.22
70708;SHT30;58277;47.316;18.908;2024-01-30T08:39:02;1.79;84.66
70708;SHT30;58277;47.316;18.908;2024-01-30T08:41:28;2.19;83.64
70708;SHT30;58277;47.316;18.908;2024-01-30T08:43:52;2.40;82.50
70708;SHT30;58277;47.316;18.908;2024-01-30T08:46:17;2.05;82.51
70708;SHT30;58277;47.316;18.908;2024-01-30T08:48:41;1.76;83.57
70708;SHT30;58277;47.316;18.908;2024-01-30T08:51:04;1.65;83.97
70708;SHT30;58277;47.316;18.908;2024-01-30T08:53:30;1.43;84.67
70708;SHT30;58277;47.316;18.908;2024-01-30T08:55:53;1.43;85.06
70708;SHT30;58277;47.316;18.908;2024-01-30T08:58:16;1.33;85.46
70708;SHT30;58277;47.316;18.908;2024-01-30T09:00:42;1.56;85.47
70708;SHT30;58277;47.316;18.908;2024-01-30T09:03:05;1.62;85.41
70708;SHT30;58277;47.316;18.908;2024-01-30T09:05:30;1.81;85.34
70708;SHT30;58277;47.316;18.908;2024-01-30T09:07:53;1.65;85.37
70708;SHT30;58277;47.316;18.908;2024-01-30T09:10:17;1.72;85.47
70708;SHT30;58277;47.316;18.908;2024-01-30T09:12:42;1.95;85.01
70708;SHT30;58277;47.316;18.908;2024-01-30T09:15:05;1.95;84.85
70708;SHT30;58277;47.316;18.908;2024-01-30T09:17:28;1.96;84.83
70708;SHT30;58277;47.316;18.908;2024-01-30T09:19:52;2.10;84.86
70708;SHT30;58277;47.316;18.908;2024-01-30T09:22:16;2.14;84.53
70708;SHT30;58277;47.316;18.908;2024-01-30T09:24:40;2.06;84.52
70708;SHT30;58277;47.316;18.908;2024-01-30T09:27:03;2.16;84.53
70708;SHT30;58277;47.316;18.908;2024-01-30T09:29:26;2.21;84.64
70708;SHT30;58277;47.316;18.908;2024-01-30T09:31:49;2.68;83.73
70708;SHT30;58277;47.316;18.908;2024-01-30T09:34:12;2.95;82.63
70708;SHT30;58277;47.316;18.908;2024-01-30T09:36:35;2.78;83.03
70708;SHT30;58277;47.316;18.908;2024-01-30T09:38:59;2.99;82.79
70708;SHT30;58277;47.316;18.908;2024-01-30T09:41:24;2.95;83.01
70708;SHT30;58277;47.316;18.908;2024-01-30T09:43:50;3.33;81.87
70708;SHT30;58277;47.316;18.908;2024-01-30T09:46:14;3.27;80.94
70708;SHT30;58277;47.316;18.908;2024-01-30T09:48:41;3.07;81.69
70708;SHT30;58277;47.316;18.908;2024-01-30T09:51:06;3.12;82.25
70708;SHT30;58277;47.316;18.908;2024-01-30T09:53:29;3.17;82.35
70708;SHT30;58277;47.316;18.908;2024-01-30T09:55:52;3.03;82.67
70708;SHT30;58277;47.316;18.908;2024-01-30T09:58:15;3.09;82.93
70708;SHT30;58277;47.316;18.908;2024-01-30T10:00:38;3.28;82.02
70708;SHT30;58277;47.316;18.908;2024-01-30T10:03:01;3.37;82.41
70708;SHT30;58277;47.316;18.908;2024-01-30T10:05:26;3.46;81.99
70708;SHT30;58277;47.316;18.908;2024-01-30T10:07:53;3.48;81.32
70708;SHT30;58277;47.316;18.908;2024-01-30T10:10:17;3.40;81.21
70708;SHT30;58277;47.316;18.908;2024-01-30T10:12:40;3.38;81.33
70708;SHT30;58277;47.316;18.908;2024-01-30T10:15:07;3.64;80.70
70708;SHT30;58277;47.316;18.908;2024-01-30T10:17:30;3.44;80.77
70708;SHT30;58277;47.316;18.908;2024-01-30T10:19:55;3.16;82.09
70708;SHT30;58277;47.316;18.908;2024-01-30T10:22:19;3.23;82.04
70708;SHT30;58277;47.316;18.908;2024-01-30T10:24:42;3.13;82.62
70708;SHT30;58277;47.316;18.908;2024-01-30T10:27:09;3.02;83.21
70708;SHT30;58277;47.316;18.908;2024-01-30T10:29:32;3.02;83.62
70708;SHT30;58277;47.316;18.908;2024-01-30T10:32:00;2.89;83.67
70708;SHT30;58277;47.316;18.908;2024-01-30T10:34:22;2.98;83.43
70708;SHT30;58277;47.316;18.908;2024-01-30T10:36:50;3.05;83.52
70708;SHT30;58277;47.316;18.908;2024-01-30T10:39:20;2.99;83.83
70708;SHT30;58277;47.316;18.908;2024-01-30T10:41:44;3.02;83.66
70708;SHT30;58277;47.316;18.908;2024-01-30T10:44:11;3.09;83.81
70708;SHT30;58277;47.316;18.908;2024-01-30T10:46:41;3.10;83.89
70708;SHT30;58277;47.316;18.908;2024-01-30T10:49:08;3.06;83.78
70708;SHT30;58277;47.316;18.908;2024-01-30T10:51:32;2.95;84.01
70708;SHT30;58277;47.316;18.908;2024-01-30T10:53:58;2.98;84.59
70708;SHT30;58277;47.316;18.908;2024-01-30T10:56:24;3.12;84.22
70708;SHT30;58277;47.316;18.908;2024-01-30T10:58:53;3.34;83.81
70708;SHT30;58277;47.316;18.908;2024-01-30T11:01:22;3.34;83.05
70708;SHT30;58277;47.316;18.908;2024-01-30T11:03:46;3.27;83.54
70708;SHT30;58277;47.316;18.908;2024-01-30T11:06:12;3.17;83.86
70708;SHT30;58277;47.316;18.908;2024-01-30T11:08:41;3.24;83.45
70708;SHT30;58277;47.316;18.908;2024-01-30T11:11:08;3.07;84.19
70708;SHT30;58277;47.316;18.908;2024-01-30T11:13:32;3.15;84.40
70708;SHT30;58277;47.316;18.908;2024-01-30T11:15:55;3.12;84.59
70708;SHT30;58277;47.316;18.908;2024-01-30T11:18:35;3.46;84.16
70708;SHT30;58277;47.316;18.908;2024-01-30T11:21:01;3.58;83.60
70708;SHT30;58277;47.316;18.908;2024-01-30T11:23:26;3.37;83.79
70708;SHT30;58277;47.316;18.908;2024-01-30T11:25:53;3.61;83.73
70708;SHT30;58277;47.316;18.908;2024-01-30T11:28:18;3.93;82.74
70708;SHT30;58277;47.316;18.908;2024-01-30T11:30:41;3.67;82.61
70708;SHT30;58277;47.316;18.908;2024-01-30T11:33:12;3.63;82.77
70708;SHT30;58277;47.316;18.908;2024-01-30T11:35:40;3.82;83.07
70708;SHT30;58277;47.316;18.908;2024-01-30T11:38:04;4.37;81.52
70708;SHT30;58277;47.316;18.908;2024-01-30T11:40:32;4.29;81.02
70708;SHT30;58277;47.316;18.908;2024-01-30T11:42:58;4.23;81.29
70708;SHT30;58277;47.316;18.908;2024-01-30T11:45:23;3.95;82.10
70708;SHT30;58277;47.316;18.908;2024-01-30T11:47:49;4.17;81.78
70708;SHT30;58277;47.316;18.908;2024-01-30T11:50:12;4.40;80.90
70708;SHT30;58277;47.316;18.908;2024-01-30T11:52:35;4.74;79.62
70708;SHT30;58277;47.316;18.908;2024-01-30T11:54:58;4.82;79.54
70708;SHT30;58277;47.316;18.908;2024-01-30T11:57:21;4.81;79.71
70708;SHT30;58277;47.316;18.908;2024-01-30T11:59:46;4.30;80.58
70708;SHT30;58277;47.316;18.908;2024-01-30T12:02:09;4.23;81.48
70708;SHT30;58277;47.316;18.908;2024-01-30T12:04:37;4.16;81.83
70708;SHT30;58277;47.316;18.908;2024-01-30T12:07:03;4.06;81.90
70708;SHT30;58277;47.316;18.908;2024-01-30T12:09:26;3.98;82.52
70708;SHT30;58277;47.316;18.908;2024-01-30T12:11:51;3.92;82.78
70708;SHT30;58277;47.316;18.908;2024-01-30T12:14:14;3.68;83.70
70708;SHT30;58277;47.316;18.908;2024-01-30T12:16:37;3.77;83.58
70708;SHT30;58277;47.316;18.908;2024-01-30T12:19:00;3.88;83.63
70708;SHT30;58277;47.316;18.908;2024-01-30T12:21:26;4.03;83.09
70708;SHT30;58277;47.316;18.908;2024-01-30T12:23:54;3.93;83.10
70708;SHT30;58277;47.316;18.908;2024-01-30T12:26:17;4.03;82.53
70708;SHT30;58277;47.316;18.908;2024-01-30T12:28:48;4.12;82.42
70708;SHT30;58277;47.316;18.908;2024-01-30T12:31:12;4.19;82.24
70708;SHT30;58277;47.316;18.908;2024-01-30T12:33:40;4.34;82.12
70708;SHT30;58277;47.316;18.908;2024-01-30T12:36:04;4.61;81.34
70708;SHT30;58277;47.316;18.908;2024-01-30T12:38:28;4.72;80.74
70708;SHT30;58277;47.316;18.908;2024-01-30T12:40:54;4.54;80.65
70708;SHT30;58277;47.316;18.908;2024-01-30T12:43:18;4.49;80.95
70708;SHT30;58277;47.316;18.908;2024-01-30T12:45:56;4.68;80.69
70708;SHT30;58277;47.316;18.908;2024-01-30T12:48:19;4.70;80.56
70708;SHT30;58277;47.316;18.908;2024-01-30T12:50:43;4.81;80.01
70708;SHT30;58277;47.316;18.908;2024-01-30T12:53:06;4.95;79.30
70708;SHT30;58277;47.316;18.908;2024-01-30T12:55:29;5.06;78.30
70708;SHT30;58277;47.316;18.908;2024-01-30T12:57:52;5.06;77.25
70708;SHT30;58277;47.316;18.908;2024-01-30T13:00:16;5.00;77.03
70708;SHT30;58277;47.316;18.908;2024-01-30T13:02:43;4.92;77.19
70708;SHT30;58277;47.316;18.908;2024-01-30T13:05:07;4.82;77.03
70708;SHT30;58277;47.316;18.908;2024-01-30T13:07:30;4.91;77.05
70708;SHT30;58277;47.316;18.908;2024-01-30T13:09:54;4.99;77.05
70708;SHT30;58277;47.316;18.908;2024-01-30T13:12:16;5.18;76.50
70708;SHT30;58277;47.316;18.908;2024-01-30T13:14:40;5.27;76.14
70708;SHT30;58277;47.316;18.908;2024-01-30T13:17:05;5.44;75.32
70708;SHT30;58277;47.316;18.908;2024-01-30T13:19:28;5.46;74.90
70708;SHT30;58277;47.316;18.908;2024-01-30T13:21:51;5.39;74.60
70708;SHT30;58277;47.316;18.908;2024-01-30T13:24:15;5.35;75.20
70708;SHT30;58277;47.316;18.908;2024-01-30T13:26:38;5.11;75.71
70708;SHT30;58277;47.316;18.908;2024-01-30T13:29:02;5.04;75.54
70708;SHT30;58277;47.316;18.908;2024-01-30T13:31:24;5.30;75.24
70708;SHT30;58277;47.316;18.908;2024-01-30T13:33:47;5.18;74.68
70708;SHT30;58277;47.316;18.908;2024-01-30T13:36:12;5.18;74.77
70708;SHT30;58277;47.316;18.908;2024-01-30T13:38:36;5.22;74.74
70708;SHT30;58277;47.316;18.908;2024-01-30T13:40:59;5.32;74.29
70708;SHT30;58277;47.316;18.908;2024-01-30T13:43:22;5.40;74.03
70708;SHT30;58277;47.316;18.908;2024-01-30T13:45:45;5.42;73.94
70708;SHT30;58277;47.316;18.908;2024-01-30T13:48:09;5.40;73.99
70708;SHT30;58277;47.316;18.908;2024-01-30T13:50:34;5.42;73.97
70708;SHT30;58277;47.316;18.908;2024-01-30T13:52:57;5.33;73.39
70708;SHT30;58277;47.316;18.908;2024-01-30T13:55:22;5.54;73.01
70708;SHT30;58277;47.316;18.908;2024-01-30T13:57:46;5.51;73.08
70708;SHT30;58277;47.316;18.908;2024-01-30T14:00:16;5.43;72.86
70708;SHT30;58277;47.316;18.908;2024-01-30T14:02:40;5.36;72.75
70708;SHT30;58277;47.316;18.908;2024-01-30T14:05:02;5.32;71.88
70708;SHT30;58277;47.316;18.908;2024-01-30T14:07:27;5.30;72.32
70708;SHT30;58277;47.316;18.908;2024-01-30T14:09:51;5.39;71.82
70708;SHT30;58277;47.316;18.908;2024-01-30T14:12:14;5.30;72.15
70708;SHT30;58277;47.316;18.908;2024-01-30T14:14:37;5.16;72.65
70708;SHT30;58277;47.316;18.908;2024-01-30T14:17:00;5.12;72.97
70708;SHT30;58277;47.316;18.908;2024-01-30T14:19:22;5.08;72.85
70708;SHT30;58277;47.316;18.908;2024-01-30T14:21:45;5.02;73.23
70708;SHT30;58277;47.316;18.908;2024-01-30T14:24:08;5.02;73.19
70708;SHT30;58277;47.316;18.908;2024-01-30T14:26:32;5.06;73.43
70708;SHT30;58277;47.316;18.908;2024-01-30T14:28:55;5.11;73.51
70708;SHT30;58277;47.316;18.908;2024-01-30T14:31:18;5.08;73.58
70708;SHT30;58277;47.316;18.908;2024-01-30T14:33:42;5.18;73.46
70708;SHT30;58277;47.316;18.908;2024-01-30T14:36:06;5.00;73.79
70708;SHT30;58277;47.316;18.908;2024-01-30T14:38:31;5.00;74.00
70708;SHT30;58277;47.316;18.908;2024-01-30T14:40:54;5.05;73.88
70708;SHT30;58277;47.316;18.908;2024-01-30T14:43:17;5.18;73.73
70708;SHT30;58277;47.316;18.908;2024-01-30T14:45:40;5.05;73.84
70708;SHT30;58277;47.316;18.908;2024-01-30T14:48:05;4.88;74.52
70708;SHT30;58277;47.316;18.908;2024-01-30T14:50:30;5.08;74.17
70708;SHT30;58277;47.316;18.908;2024-01-30T14:52:53;4.95;74.50
70708;SHT30;58277;47.316;18.908;2024-01-30T14:55:16;4.79;75.09
70708;SHT30;58277;47.316;18.908;2024-01-30T14:57:42;4.74;75.42
70708;SHT30;58277;47.316;18.908;2024-01-30T15:00:08;4.89;75.13
70708;SHT30;58277;47.316;18.908;2024-01-30T15:02:39;4.79;75.46